createdAt,value
2018-11-02T00:00:04.850Z,1013.24
2018-11-02T00:01:04.861Z,1013.28
2018-11-02T00:02:04.881Z,1013.27
2018-11-02T00:03:04.894Z,1013.27
2018-11-02T00:04:04.919Z,1013.29
2018-11-02T00:05:04.973Z,1013.28
2018-11-02T00:06:04.955Z,1013.30
2018-11-02T00:07:04.971Z,1013.33
2018-11-02T00:08:04.987Z,1013.35
2018-11-02T00:09:05.004Z,1013.31
2018-11-02T00:10:05.029Z,1013.34
2018-11-02T00:11:05.052Z,1013.34
2018-11-02T00:12:05.124Z,1013.33
2018-11-02T00:13:05.078Z,1013.35
2018-11-02T00:14:05.096Z,1013.33
2018-11-02T00:15:05.113Z,1013.33
2018-11-02T00:16:05.147Z,1013.37
2018-11-02T00:17:05.210Z,1013.37
2018-11-02T00:18:05.173Z,1013.36
2018-11-02T00:19:05.182Z,1013.32
2018-11-02T00:20:05.197Z,1013.33
2018-11-02T00:21:05.227Z,1013.30
2018-11-02T00:22:05.240Z,1013.33
2018-11-02T00:23:05.260Z,1013.29
2018-11-02T00:24:05.285Z,1013.33
2018-11-02T00:25:05.302Z,1013.31
2018-11-02T00:26:05.316Z,1013.27
2018-11-02T00:27:05.337Z,1013.29
2018-11-02T00:28:05.346Z,1013.27
2018-11-02T00:29:05.372Z,1013.24
2018-11-02T00:30:05.382Z,1013.30
2018-11-02T00:31:05.407Z,1013.29
2018-11-02T00:32:05.520Z,1013.37
2018-11-02T00:33:05.444Z,1013.31
2018-11-02T00:34:05.463Z,1013.33
2018-11-02T00:35:05.528Z,1013.34
2018-11-02T00:36:05.500Z,1013.30
2018-11-02T00:37:05.513Z,1013.31
2018-11-02T00:38:05.537Z,1013.32
2018-11-02T00:39:05.554Z,1013.32
2018-11-02T00:40:05.575Z,1013.33
2018-11-02T00:41:05.631Z,1013.30
2018-11-02T00:42:05.603Z,1013.32
2018-11-02T00:43:05.618Z,1013.28
2018-11-02T00:44:05.668Z,1013.33
2018-11-02T00:45:05.658Z,1013.28
2018-11-02T00:46:05.724Z,1013.29
2018-11-02T00:47:05.692Z,1013.27
2018-11-02T00:48:05.715Z,1013.28
2018-11-02T00:49:05.730Z,1013.26
2018-11-02T00:50:05.752Z,1013.26
2018-11-02T00:51:05.781Z,1013.28
2018-11-02T00:52:05.790Z,1013.26
2018-11-02T00:53:05.803Z,1013.27
2018-11-02T00:54:05.827Z,1013.29
2018-11-02T00:55:05.838Z,1013.28
2018-11-02T00:56:05.865Z,1013.30
2018-11-02T00:57:05.879Z,1013.25
2018-11-02T00:58:05.923Z,1013.22
2018-11-02T00:59:05.915Z,1013.23
2018-11-02T01:00:05.968Z,1013.25
2018-11-02T01:01:05.957Z,1013.25
2018-11-02T01:02:05.976Z,1013.22
2018-11-02T01:03:05.999Z,1013.22
2018-11-02T01:04:06.009Z,1013.23
2018-11-02T01:05:06.029Z,1013.26
2018-11-02T01:06:06.049Z,1013.29
2018-11-02T01:07:06.063Z,1013.33
2018-11-02T01:08:06.078Z,1013.29
2018-11-02T01:09:06.107Z,1013.27
2018-11-02T01:10:06.122Z,1013.27
2018-11-02T01:11:06.141Z,1013.22
2018-11-02T01:12:06.155Z,1013.22
2018-11-02T01:13:06.183Z,1013.17
2018-11-02T01:14:06.187Z,1013.19
2018-11-02T01:15:06.215Z,1013.24
2018-11-02T01:16:06.233Z,1013.19
2018-11-02T01:17:06.250Z,1013.19
2018-11-02T01:18:06.268Z,1013.18
2018-11-02T01:19:06.281Z,1013.18
2018-11-02T01:20:06.299Z,1013.19
2018-11-02T01:21:06.316Z,1013.14
2018-11-02T01:22:06.339Z,1013.24
2018-11-02T01:23:06.387Z,1013.19
2018-11-02T01:24:06.377Z,1013.24
2018-11-02T01:25:06.423Z,1013.24
2018-11-02T01:26:06.413Z,1013.23
2018-11-02T01:27:06.434Z,1013.21
2018-11-02T01:28:06.460Z,1013.22
2018-11-02T01:29:06.520Z,1013.24
2018-11-02T01:30:06.484Z,1013.23
2018-11-02T01:31:06.504Z,1013.27
2018-11-02T01:32:06.530Z,1013.30
2018-11-02T01:33:06.536Z,1013.30
2018-11-02T01:34:06.564Z,1013.31
2018-11-02T01:35:06.582Z,1013.26
2018-11-02T01:36:06.601Z,1013.33
2018-11-02T01:37:06.621Z,1013.25
2018-11-02T01:38:06.632Z,1013.26
2018-11-02T01:39:06.653Z,1013.31
2018-11-02T01:40:06.677Z,1013.29
2018-11-02T01:41:06.693Z,1013.29
2018-11-02T01:42:06.707Z,1013.26
2018-11-02T01:43:06.733Z,1013.23
2018-11-02T01:44:06.749Z,1013.23
2018-11-02T01:45:06.763Z,1013.23
2018-11-02T01:46:06.784Z,1013.21
2018-11-02T01:47:06.798Z,1013.21
2018-11-02T01:48:06.811Z,1013.21
2018-11-02T01:49:06.835Z,1013.23
2018-11-02T01:50:06.856Z,1013.22
2018-11-02T01:51:06.875Z,1013.18
2018-11-02T01:52:06.895Z,1013.19
2018-11-02T01:53:06.915Z,1013.20
2018-11-02T01:54:06.927Z,1013.18
2018-11-02T01:55:06.944Z,1013.17
2018-11-02T01:56:06.970Z,1013.19
2018-11-02T01:57:06.991Z,1013.14
2018-11-02T01:58:07.007Z,1013.14
2018-11-02T01:59:07.019Z,1013.15
2018-11-02T02:00:07.047Z,1013.15
2018-11-02T02:01:07.061Z,1013.15
2018-11-02T02:02:07.077Z,1013.15
2018-11-02T02:03:07.096Z,1013.12
2018-11-02T02:04:07.115Z,1013.12
2018-11-02T02:05:07.126Z,1013.08
2018-11-02T02:06:07.160Z,1013.12
2018-11-02T02:07:07.168Z,1013.14
2018-11-02T02:08:07.188Z,1013.13
2018-11-02T02:09:07.212Z,1013.11
2018-11-02T02:10:07.247Z,1013.10
2018-11-02T02:11:07.244Z,1013.09
2018-11-02T02:12:07.265Z,1013.12
2018-11-02T02:13:07.324Z,1013.07
2018-11-02T02:14:07.300Z,1013.08
2018-11-02T02:15:07.314Z,1013.06
2018-11-02T02:16:07.331Z,1013.06
2018-11-02T02:17:07.349Z,1013.06
2018-11-02T02:18:07.367Z,1013.02
2018-11-02T02:19:07.388Z,1013.02
2018-11-02T02:20:07.434Z,1012.97
2018-11-02T02:21:07.420Z,1013.01
2018-11-02T02:22:07.442Z,1013.01
2018-11-02T02:23:07.460Z,1013.05
2018-11-02T02:24:07.483Z,1013.04
2018-11-02T02:25:07.493Z,1013.08
2018-11-02T02:26:07.522Z,1013.07
2018-11-02T02:27:07.529Z,1013.14
2018-11-02T02:28:07.554Z,1013.15
2018-11-02T02:29:07.569Z,1013.15
2018-11-02T02:30:07.586Z,1013.18
2018-11-02T02:31:07.611Z,1013.17
2018-11-02T02:32:07.620Z,1013.11
2018-11-02T02:33:07.642Z,1013.11
2018-11-02T02:34:07.661Z,1013.17
2018-11-02T02:35:07.683Z,1013.15
2018-11-02T02:36:07.701Z,1013.12
2018-11-02T02:37:07.714Z,1013.13
2018-11-02T02:38:07.727Z,1013.14
2018-11-02T02:39:07.750Z,1013.16
2018-11-02T02:40:07.774Z,1013.17
2018-11-02T02:41:07.791Z,1013.12
2018-11-02T02:42:07.812Z,1013.12
2018-11-02T02:43:07.824Z,1013.15
2018-11-02T02:44:07.849Z,1013.20
2018-11-02T02:45:07.865Z,1013.22
2018-11-02T02:46:07.887Z,1013.24
2018-11-02T02:47:07.978Z,1013.25
2018-11-02T02:48:07.916Z,1013.25
2018-11-02T02:49:07.932Z,1013.22
2018-11-02T02:50:07.960Z,1013.26
2018-11-02T02:51:07.976Z,1013.21
2018-11-02T02:52:07.989Z,1013.25
2018-11-02T02:53:08.031Z,1013.22
2018-11-02T02:54:08.056Z,1013.22
2018-11-02T02:55:08.049Z,1013.20
2018-11-02T02:56:08.064Z,1013.18
2018-11-02T02:57:08.072Z,1013.21
2018-11-02T02:58:08.092Z,1013.20
2018-11-02T02:59:08.119Z,1013.19
2018-11-02T03:00:08.132Z,1013.16
2018-11-02T03:01:08.155Z,1013.21
2018-11-02T03:02:08.170Z,1013.20
2018-11-02T03:03:08.188Z,1013.19
2018-11-02T03:04:08.244Z,1013.16
2018-11-02T03:05:08.230Z,1013.15
2018-11-02T03:06:08.243Z,1013.17
2018-11-02T03:07:08.267Z,1013.16
2018-11-02T03:08:08.282Z,1013.19
2018-11-02T03:09:08.306Z,1013.19
2018-11-02T03:10:08.314Z,1013.22
2018-11-02T03:11:08.524Z,1013.23
2018-11-02T03:12:08.365Z,1013.22
2018-11-02T03:13:08.409Z,1013.24
2018-11-02T03:14:08.415Z,1013.23
2018-11-02T03:15:08.403Z,1013.18
2018-11-02T03:16:08.427Z,1013.18
2018-11-02T03:17:08.445Z,1013.19
2018-11-02T03:18:08.466Z,1013.18
2018-11-02T03:19:08.502Z,1013.23
2018-11-02T03:20:08.516Z,1013.20
2018-11-02T03:21:08.522Z,1013.25
2018-11-02T03:22:08.535Z,1013.24
2018-11-02T03:23:08.562Z,1013.22
2018-11-02T03:24:08.569Z,1013.22
2018-11-02T03:25:08.585Z,1013.25
2018-11-02T03:26:08.617Z,1013.26
2018-11-02T03:27:08.632Z,1013.24
2018-11-02T03:28:08.645Z,1013.31
2018-11-02T03:29:08.682Z,1013.26
2018-11-02T03:30:08.686Z,1013.24
2018-11-02T03:31:08.700Z,1013.24
2018-11-02T03:32:08.727Z,1013.25
2018-11-02T03:33:08.740Z,1013.23
2018-11-02T03:34:08.761Z,1013.26
2018-11-02T03:35:08.814Z,1013.32
2018-11-02T03:36:08.801Z,1013.32
2018-11-02T03:37:08.825Z,1013.30
2018-11-02T03:38:08.833Z,1013.30
2018-11-02T03:39:08.845Z,1013.29
2018-11-02T03:40:08.861Z,1013.27
2018-11-02T03:41:08.881Z,1013.27
2018-11-02T03:42:08.894Z,1013.30
2018-11-02T03:43:08.939Z,1013.29
2018-11-02T03:44:08.942Z,1013.27
2018-11-02T03:45:08.952Z,1013.27
2018-11-02T03:46:08.975Z,1013.27
2018-11-02T03:47:09.081Z,1013.31
2018-11-02T03:48:09.007Z,1013.28
2018-11-02T03:49:09.026Z,1013.30
2018-11-02T03:50:09.082Z,1013.31
2018-11-02T03:51:09.063Z,1013.31
2018-11-02T03:52:09.501Z,1013.30
2018-11-02T03:53:09.105Z,1013.28
2018-11-02T03:54:09.125Z,1013.28
2018-11-02T03:55:09.137Z,1013.28
2018-11-02T03:56:09.158Z,1013.22
2018-11-02T03:57:09.186Z,1013.22
2018-11-02T03:58:09.193Z,1013.21
2018-11-02T03:59:09.223Z,1013.22
2018-11-02T04:00:09.550Z,1013.22
2018-11-02T04:01:09.290Z,1013.22
2018-11-02T04:02:09.268Z,1013.20
2018-11-02T04:03:09.288Z,1013.21
2018-11-02T04:04:09.312Z,1013.18
2018-11-02T04:05:09.321Z,1013.19
2018-11-02T04:06:09.345Z,1013.19
2018-11-02T04:07:09.361Z,1013.23
2018-11-02T04:08:09.381Z,1013.25
2018-11-02T04:09:09.400Z,1013.20
2018-11-02T04:10:09.420Z,1013.22
2018-11-02T04:11:09.434Z,1013.19
2018-11-02T04:12:09.476Z,1013.20
2018-11-02T04:13:09.467Z,1013.15
2018-11-02T04:14:09.515Z,1013.19
2018-11-02T04:15:09.505Z,1013.22
2018-11-02T04:16:09.524Z,1013.22
2018-11-02T04:17:09.545Z,1013.24
2018-11-02T04:18:09.570Z,1013.25
2018-11-02T04:19:09.570Z,1013.29
2018-11-02T04:20:09.593Z,1013.31
2018-11-02T04:21:09.608Z,1013.28
2018-11-02T04:22:09.638Z,1013.29
2018-11-02T04:23:09.647Z,1013.30
2018-11-02T04:24:09.660Z,1013.27
2018-11-02T04:25:09.679Z,1013.27
2018-11-02T04:26:09.704Z,1013.28
2018-11-02T04:27:09.721Z,1013.33
2018-11-02T04:28:09.801Z,1013.33
2018-11-02T04:29:09.754Z,1013.34
2018-11-02T04:30:09.773Z,1013.37
2018-11-02T04:31:09.921Z,1013.34
2018-11-02T04:32:09.814Z,1013.33
2018-11-02T04:33:09.840Z,1013.34
2018-11-02T04:34:09.848Z,1013.36
2018-11-02T04:35:09.867Z,1013.40
2018-11-02T04:36:09.924Z,1013.42
2018-11-02T04:37:09.903Z,1013.47
2018-11-02T04:38:09.918Z,1013.48
2018-11-02T04:39:09.945Z,1013.48
2018-11-02T04:40:10.005Z,1013.52
2018-11-02T04:41:09.977Z,1013.52
2018-11-02T04:42:09.996Z,1013.52
2018-11-02T04:43:10.017Z,1013.55
2018-11-02T04:44:10.032Z,1013.53
2018-11-02T04:45:10.051Z,1013.52
2018-11-02T04:46:10.093Z,1013.54
2018-11-02T04:47:10.122Z,1013.55
2018-11-02T04:48:10.140Z,1013.61
2018-11-02T04:49:10.118Z,1013.60
2018-11-02T04:50:10.157Z,1013.64
2018-11-02T04:51:10.168Z,1013.65
2018-11-02T04:52:10.248Z,1013.63
2018-11-02T04:53:10.199Z,1013.69
2018-11-02T04:54:10.211Z,1013.65
2018-11-02T04:55:10.249Z,1013.67
2018-11-02T04:56:10.257Z,1013.67
2018-11-02T04:57:10.269Z,1013.68
2018-11-02T04:58:10.283Z,1013.68
2018-11-02T04:59:10.296Z,1013.70
2018-11-02T05:00:10.318Z,1013.71
2018-11-02T05:01:10.346Z,1013.69
2018-11-02T05:02:10.363Z,1013.72
2018-11-02T05:03:10.378Z,1013.69
2018-11-02T05:04:10.400Z,1013.70
2018-11-02T05:05:10.413Z,1013.73
2018-11-02T05:06:10.475Z,1013.72
2018-11-02T05:07:10.451Z,1013.71
2018-11-02T05:08:10.468Z,1013.74
2018-11-02T05:09:10.486Z,1013.74
2018-11-02T05:10:10.504Z,1013.71
2018-11-02T05:11:10.600Z,1013.75
2018-11-02T05:12:10.537Z,1013.74
2018-11-02T05:13:10.568Z,1013.75
2018-11-02T05:14:10.585Z,1013.78
2018-11-02T05:15:10.594Z,1013.75
2018-11-02T05:16:10.610Z,1013.73
2018-11-02T05:17:10.632Z,1013.75
2018-11-02T05:18:10.700Z,1013.72
2018-11-02T05:19:10.666Z,1013.74
2018-11-02T05:20:10.687Z,1013.75
2018-11-02T05:21:10.754Z,1013.75
2018-11-02T05:22:10.725Z,1013.71
2018-11-02T05:23:10.752Z,1013.72
2018-11-02T05:24:10.758Z,1013.77
2018-11-02T05:25:10.784Z,1013.76
2018-11-02T05:26:10.796Z,1013.74
2018-11-02T05:27:10.814Z,1013.75
2018-11-02T05:28:10.850Z,1013.73
2018-11-02T05:29:10.858Z,1013.76
2018-11-02T05:30:10.874Z,1013.71
2018-11-02T05:31:10.892Z,1013.70
2018-11-02T05:32:10.912Z,1013.71
2018-11-02T05:33:10.932Z,1013.72
2018-11-02T05:34:10.946Z,1013.76
2018-11-02T05:35:10.967Z,1013.71
2018-11-02T05:36:10.982Z,1013.74
2018-11-02T05:37:11.009Z,1013.76
2018-11-02T05:38:11.017Z,1013.77
2018-11-02T05:39:11.037Z,1013.74
2018-11-02T05:40:11.056Z,1013.81
2018-11-02T05:41:11.073Z,1013.80
2018-11-02T05:42:11.095Z,1013.80
2018-11-02T05:43:11.117Z,1013.79
2018-11-02T05:44:11.133Z,1013.83
2018-11-02T05:45:11.148Z,1013.81
2018-11-02T05:46:11.161Z,1013.86
2018-11-02T05:47:11.225Z,1013.86
2018-11-02T05:48:11.204Z,1013.92
2018-11-02T05:49:11.225Z,1013.89
2018-11-02T05:50:11.248Z,1013.86
2018-11-02T05:51:11.255Z,1013.85
2018-11-02T05:52:11.291Z,1013.84
2018-11-02T05:53:11.296Z,1013.86
2018-11-02T05:54:11.390Z,1013.87
2018-11-02T05:55:11.336Z,1013.84
2018-11-02T05:56:11.345Z,1013.85
2018-11-02T05:57:11.380Z,1013.83
2018-11-02T05:58:11.390Z,1013.84
2018-11-02T05:59:11.405Z,1013.84
2018-11-02T06:00:11.450Z,1013.83
2018-11-02T06:01:11.474Z,1013.85
2018-11-02T06:02:11.459Z,1013.82
2018-11-02T06:03:11.547Z,1013.82
2018-11-02T06:04:11.499Z,1013.80
2018-11-02T06:05:11.510Z,1013.83
2018-11-02T06:06:11.537Z,1013.82
2018-11-02T06:07:11.550Z,1013.84
2018-11-02T06:08:11.569Z,1013.80
2018-11-02T06:09:11.648Z,1013.78
2018-11-02T06:10:11.612Z,1013.80
2018-11-02T06:11:11.618Z,1013.81
2018-11-02T06:12:11.647Z,1013.80
2018-11-02T06:13:11.661Z,1013.79
2018-11-02T06:14:11.679Z,1013.82
2018-11-02T06:15:11.703Z,1013.81
2018-11-02T06:16:11.715Z,1013.80
2018-11-02T06:17:11.752Z,1013.82
2018-11-02T06:18:11.755Z,1013.81
2018-11-02T06:19:11.775Z,1013.82
2018-11-02T06:20:11.802Z,1013.80
2018-11-02T06:21:11.814Z,1013.81
2018-11-02T06:22:11.826Z,1013.80
2018-11-02T06:23:11.847Z,1013.79
2018-11-02T06:24:11.953Z,1013.80
2018-11-02T06:25:11.884Z,1013.79
2018-11-02T06:26:11.906Z,1013.79
2018-11-02T06:27:11.922Z,1013.80
2018-11-02T06:28:11.936Z,1013.77
2018-11-02T06:29:11.955Z,1013.78
2018-11-02T06:30:11.981Z,1013.77
2018-11-02T06:31:11.992Z,1013.77
2018-11-02T06:32:12.033Z,1013.80
2018-11-02T06:33:12.026Z,1013.82
2018-11-02T06:34:12.040Z,1013.80
2018-11-02T06:35:12.059Z,1013.82
2018-11-02T06:36:12.126Z,1013.82
2018-11-02T06:37:12.098Z,1013.82
2018-11-02T06:38:12.198Z,1013.82
2018-11-02T06:39:12.130Z,1013.86
2018-11-02T06:40:12.148Z,1013.85
2018-11-02T06:41:12.173Z,1013.84
2018-11-02T06:42:12.194Z,1013.83
2018-11-02T06:43:12.208Z,1013.82
2018-11-02T06:44:12.233Z,1013.78
2018-11-02T06:45:12.264Z,1013.78
2018-11-02T06:46:12.272Z,1013.79
2018-11-02T06:47:12.292Z,1013.82
2018-11-02T06:48:12.297Z,1013.84
2018-11-02T06:49:12.318Z,1013.85
2018-11-02T06:50:12.390Z,1013.83
2018-11-02T06:51:12.354Z,1013.82
2018-11-02T06:52:12.383Z,1013.79
2018-11-02T06:53:12.388Z,1013.82
2018-11-02T06:54:12.403Z,1013.80
2018-11-02T06:55:12.424Z,1013.76
2018-11-02T06:56:12.448Z,1013.78
2018-11-02T06:57:12.456Z,1013.76
2018-11-02T06:58:12.485Z,1013.76
2018-11-02T06:59:12.576Z,1013.77
2018-11-02T07:00:12.542Z,1013.77
2018-11-02T07:01:12.531Z,1013.78
2018-11-02T07:02:12.566Z,1013.78
2018-11-02T07:03:12.577Z,1013.79
2018-11-02T07:04:12.587Z,1013.77
2018-11-02T07:05:12.608Z,1013.78
2018-11-02T07:06:12.629Z,1013.75
2018-11-02T07:07:12.689Z,1013.78
2018-11-02T07:08:12.899Z,1013.78
2018-11-02T07:09:12.683Z,1013.79
2018-11-02T07:10:12.709Z,1013.82
2018-11-02T07:11:12.721Z,1013.83
2018-11-02T07:12:12.742Z,1013.86
2018-11-02T07:13:12.755Z,1013.88
2018-11-02T07:14:12.819Z,1013.89
2018-11-02T07:15:12.793Z,1013.89
2018-11-02T07:16:12.809Z,1013.91
2018-11-02T07:17:12.833Z,1013.91
2018-11-02T07:18:12.866Z,1013.92
2018-11-02T07:19:12.863Z,1013.93
2018-11-02T07:20:12.892Z,1013.96
2018-11-02T07:21:12.903Z,1014.01
2018-11-02T07:22:12.927Z,1014.01
2018-11-02T07:23:12.949Z,1014.01
2018-11-02T07:24:12.958Z,1014.02
2018-11-02T07:25:13.133Z,1014.04
2018-11-02T07:26:12.989Z,1014.05
2018-11-02T07:27:13.008Z,1014.03
2018-11-02T07:28:13.027Z,1013.99
2018-11-02T07:29:13.045Z,1014.01
2018-11-02T07:30:13.063Z,1014.01
2018-11-02T07:31:13.087Z,1014.03
2018-11-02T07:32:13.143Z,1014.01
2018-11-02T07:33:13.127Z,1014.00
2018-11-02T07:34:13.159Z,1013.99
2018-11-02T07:35:13.160Z,1013.98
2018-11-02T07:36:13.171Z,1013.99
2018-11-02T07:37:13.197Z,1014.04
2018-11-02T07:38:13.213Z,1014.04
2018-11-02T07:39:13.228Z,1014.04
2018-11-02T07:40:13.252Z,1014.05
2018-11-02T07:41:13.270Z,1014.06
2018-11-02T07:42:13.289Z,1014.05
2018-11-02T07:43:13.304Z,1014.03
2018-11-02T07:44:13.321Z,1014.00
2018-11-02T07:45:13.370Z,1014.01
2018-11-02T07:46:13.355Z,1014.03
2018-11-02T07:47:13.373Z,1014.06
2018-11-02T07:48:13.391Z,1014.08
2018-11-02T07:49:13.417Z,1014.08
2018-11-02T07:50:13.448Z,1014.11
2018-11-02T07:51:13.446Z,1014.14
2018-11-02T07:52:13.469Z,1014.20
2018-11-02T07:53:13.486Z,1014.16
2018-11-02T07:54:13.504Z,1014.15
2018-11-02T07:55:13.527Z,1014.14
2018-11-02T07:56:13.592Z,1014.15
2018-11-02T07:57:13.566Z,1014.16
2018-11-02T07:58:13.584Z,1014.18
2018-11-02T07:59:13.598Z,1014.21
2018-11-02T08:00:13.618Z,1014.16
2018-11-02T08:01:13.634Z,1014.28
2018-11-02T08:02:13.658Z,1014.31
2018-11-02T08:03:13.670Z,1014.35
2018-11-02T08:04:13.696Z,1014.36
2018-11-02T08:05:13.725Z,1014.34
2018-11-02T08:06:13.737Z,1014.39
2018-11-02T08:07:13.760Z,1014.38
2018-11-02T08:08:13.854Z,1014.43
2018-11-02T08:09:13.793Z,1014.46
2018-11-02T08:10:13.814Z,1014.47
2018-11-02T08:11:13.902Z,1014.54
2018-11-02T08:12:13.906Z,1014.58
2018-11-02T08:13:13.874Z,1014.57
2018-11-02T08:14:13.977Z,1014.58
2018-11-02T08:15:13.915Z,1014.58
2018-11-02T08:16:13.930Z,1014.64
2018-11-02T08:17:13.946Z,1014.62
2018-11-02T08:18:13.965Z,1014.69
2018-11-02T08:19:13.986Z,1014.67
2018-11-02T08:20:14.025Z,1014.68
2018-11-02T08:21:14.022Z,1014.67
2018-11-02T08:22:14.048Z,1014.73
2018-11-02T08:23:14.063Z,1014.76
2018-11-02T08:24:14.088Z,1014.73
2018-11-02T08:25:14.109Z,1014.71
2018-11-02T08:26:14.125Z,1014.79
2018-11-02T08:27:14.144Z,1014.83
2018-11-02T08:28:14.158Z,1014.83
2018-11-02T08:29:14.178Z,1014.85
2018-11-02T08:30:14.403Z,1014.87
2018-11-02T08:31:14.217Z,1014.88
2018-11-02T08:32:14.357Z,1014.86
2018-11-02T08:33:14.260Z,1014.91
2018-11-02T08:34:14.280Z,1014.98
2018-11-02T08:35:14.292Z,1014.97
2018-11-02T08:36:14.316Z,1014.98
2018-11-02T08:37:14.338Z,1015.02
2018-11-02T08:38:14.356Z,1015.00
2018-11-02T08:39:14.366Z,1015.04
2018-11-02T08:40:14.391Z,1015.02
2018-11-02T08:41:14.405Z,1015.07
2018-11-02T08:42:14.431Z,1015.03
2018-11-02T08:43:14.447Z,1015.04
2018-11-02T08:44:14.505Z,1015.08
2018-11-02T08:45:14.477Z,1015.10
2018-11-02T08:46:14.536Z,1015.12
2018-11-02T08:47:14.517Z,1015.09
2018-11-02T08:48:14.539Z,1015.07
2018-11-02T08:49:14.557Z,1015.08
2018-11-02T08:50:14.577Z,1015.08
2018-11-02T08:51:14.603Z,1015.09
2018-11-02T08:52:14.630Z,1015.13
2018-11-02T08:53:14.634Z,1015.11
2018-11-02T08:54:14.645Z,1015.10
2018-11-02T08:55:14.669Z,1015.10
2018-11-02T08:56:14.700Z,1015.10
2018-11-02T08:57:14.706Z,1015.10
2018-11-02T08:58:14.896Z,1015.12
2018-11-02T08:59:14.872Z,1015.13
2018-11-02T09:00:14.824Z,1015.16
2018-11-02T09:01:14.781Z,1015.12
2018-11-02T09:02:14.798Z,1015.13
2018-11-02T09:03:14.821Z,1015.16
2018-11-02T09:04:14.838Z,1015.13
2018-11-02T09:05:15.076Z,1015.11
2018-11-02T09:06:14.879Z,1015.19
2018-11-02T09:07:14.889Z,1015.17
2018-11-02T09:08:14.909Z,1015.18
2018-11-02T09:09:14.931Z,1015.22
2018-11-02T09:10:14.946Z,1015.25
2018-11-02T09:11:14.964Z,1015.27
2018-11-02T09:12:15.092Z,1015.25
2018-11-02T09:13:15.008Z,1015.26
2018-11-02T09:14:15.021Z,1015.27
2018-11-02T09:15:15.054Z,1015.32
2018-11-02T09:16:15.071Z,1015.35
2018-11-02T09:17:15.078Z,1015.32
2018-11-02T09:18:15.095Z,1015.32
2018-11-02T09:19:15.157Z,1015.35
2018-11-02T09:20:15.129Z,1015.30
2018-11-02T09:21:15.151Z,1015.24
2018-11-02T09:22:15.181Z,1015.30
2018-11-02T09:23:15.395Z,1015.27
2018-11-02T09:24:15.404Z,1015.21
2018-11-02T09:25:15.224Z,1015.23
2018-11-02T09:26:15.262Z,1015.26
2018-11-02T09:27:15.271Z,1015.26
2018-11-02T09:28:15.329Z,1015.29
2018-11-02T09:29:15.301Z,1015.30
2018-11-02T09:30:15.316Z,1015.31
2018-11-02T09:31:15.386Z,1015.31
2018-11-02T09:32:15.420Z,1015.35
2018-11-02T09:33:15.371Z,1015.35
2018-11-02T09:34:15.392Z,1015.35
2018-11-02T09:35:15.440Z,1015.38
2018-11-02T09:36:15.433Z,1015.41
2018-11-02T09:37:15.455Z,1015.41
2018-11-02T09:38:15.528Z,1015.45
2018-11-02T09:39:15.489Z,1015.44
2018-11-02T09:40:15.521Z,1015.40
2018-11-02T09:41:15.526Z,1015.41
2018-11-02T09:42:15.551Z,1015.39
2018-11-02T09:43:15.567Z,1015.38
2018-11-02T09:44:15.581Z,1015.41
2018-11-02T09:45:15.602Z,1015.40
2018-11-02T09:46:15.617Z,1015.40
2018-11-02T09:47:15.642Z,1015.38
2018-11-02T09:48:15.659Z,1015.36
2018-11-02T09:49:15.686Z,1015.35
2018-11-02T09:50:15.693Z,1015.34
2018-11-02T09:51:15.805Z,1015.36
2018-11-02T09:52:15.739Z,1015.40
2018-11-02T09:53:15.757Z,1015.37
2018-11-02T09:54:15.781Z,1015.41
2018-11-02T09:55:15.798Z,1015.38
2018-11-02T09:56:15.820Z,1015.38
2018-11-02T09:57:15.849Z,1015.39
2018-11-02T09:58:15.849Z,1015.40
2018-11-02T09:59:15.865Z,1015.40
2018-11-02T10:00:15.887Z,1015.50
2018-11-02T10:01:15.945Z,1015.46
2018-11-02T10:02:15.986Z,1015.44
2018-11-02T10:03:15.951Z,1015.42
2018-11-02T10:04:15.961Z,1015.44
2018-11-02T10:05:15.980Z,1015.50
2018-11-02T10:06:16.004Z,1015.48
2018-11-02T10:07:16.021Z,1015.43
2018-11-02T10:08:16.039Z,1015.51
2018-11-02T10:09:16.121Z,1015.46
2018-11-02T10:10:16.082Z,1015.45
2018-11-02T10:11:16.098Z,1015.48
2018-11-02T10:12:16.116Z,1015.49
2018-11-02T10:13:16.138Z,1015.49
2018-11-02T10:14:16.159Z,1015.45
2018-11-02T10:15:16.179Z,1015.46
2018-11-02T10:16:16.195Z,1015.45
2018-11-02T10:17:16.221Z,1015.40
2018-11-02T10:18:16.239Z,1015.41
2018-11-02T10:19:16.258Z,1015.43
2018-11-02T10:20:16.279Z,1015.47
2018-11-02T10:21:16.291Z,1015.45
2018-11-02T10:22:16.315Z,1015.46
2018-11-02T10:23:16.332Z,1015.47
2018-11-02T10:24:16.355Z,1015.43
2018-11-02T10:25:16.382Z,1015.54
2018-11-02T10:26:16.391Z,1015.45
2018-11-02T10:27:16.420Z,1015.49
2018-11-02T10:28:16.461Z,1015.49
2018-11-02T10:29:16.450Z,1015.45
2018-11-02T10:30:16.474Z,1015.46
2018-11-02T10:31:16.575Z,1015.46
2018-11-02T10:32:16.544Z,1015.54
2018-11-02T10:33:16.541Z,1015.47
2018-11-02T10:34:16.551Z,1015.46
2018-11-02T10:35:16.621Z,1015.42
2018-11-02T10:36:16.593Z,1015.40
2018-11-02T10:37:16.666Z,1015.36
2018-11-02T10:38:16.633Z,1015.38
2018-11-02T10:39:16.948Z,1015.39
2018-11-02T10:40:16.678Z,1015.35
2018-11-02T10:41:16.693Z,1015.38
2018-11-02T10:42:16.720Z,1015.34
2018-11-02T10:43:16.848Z,1015.34
2018-11-02T10:44:16.821Z,1015.31
2018-11-02T10:45:16.799Z,1015.34
2018-11-02T10:46:16.792Z,1015.34
2018-11-02T10:47:16.821Z,1015.36
2018-11-02T10:48:16.840Z,1015.29
2018-11-02T10:49:16.932Z,1015.33
2018-11-02T10:50:16.884Z,1015.36
2018-11-02T10:51:16.924Z,1015.36
2018-11-02T10:52:16.924Z,1015.40
2018-11-02T10:53:16.937Z,1015.36
2018-11-02T10:55:17.018Z,1015.42
2018-11-02T10:56:16.996Z,1015.43
2018-11-02T10:57:17.026Z,1015.48
2018-11-02T10:58:17.048Z,1015.37
2018-11-02T10:59:17.067Z,1015.46
2018-11-02T11:00:17.093Z,1015.43
2018-11-02T11:01:17.198Z,1015.40
2018-11-02T11:02:17.129Z,1015.48
2018-11-02T11:03:17.140Z,1015.49
2018-11-02T11:04:17.168Z,1015.52
2018-11-02T11:05:17.290Z,1015.47
2018-11-02T11:06:17.210Z,1015.49
2018-11-02T11:07:17.258Z,1015.46
2018-11-02T11:08:17.245Z,1015.45
2018-11-02T11:09:17.275Z,1015.55
2018-11-02T11:10:17.292Z,1015.48
2018-11-02T11:11:17.319Z,1015.50
2018-11-02T11:12:17.471Z,1015.49
2018-11-02T11:13:17.830Z,1015.56
2018-11-02T11:14:17.376Z,1015.61
2018-11-02T11:15:17.398Z,1015.57
2018-11-02T11:16:17.422Z,1015.63
2018-11-02T11:17:17.443Z,1015.54
2018-11-02T11:18:17.467Z,1015.55
2018-11-02T11:19:17.490Z,1015.53
2018-11-02T11:20:17.503Z,1015.49
2018-11-02T11:21:17.609Z,1015.58
2018-11-02T11:22:17.547Z,1015.52
2018-11-02T11:23:17.568Z,1015.56
2018-11-02T11:24:17.597Z,1015.57
2018-11-02T11:25:17.612Z,1015.52
2018-11-02T11:26:17.639Z,1015.52
2018-11-02T11:27:17.714Z,1015.48
2018-11-02T11:28:17.679Z,1015.48
2018-11-02T11:29:17.717Z,1015.52
2018-11-02T11:30:17.732Z,1015.53
2018-11-02T11:31:17.782Z,1015.50
2018-11-02T11:32:17.767Z,1015.48
2018-11-02T11:33:17.791Z,1015.46
2018-11-02T11:34:17.814Z,1015.48
2018-11-02T11:35:17.833Z,1015.46
2018-11-02T11:36:17.855Z,1015.42
2018-11-02T11:37:17.877Z,1015.40
2018-11-02T11:38:17.890Z,1015.39
2018-11-02T11:39:17.911Z,1015.44
2018-11-02T11:40:17.941Z,1015.43
2018-11-02T11:41:17.957Z,1015.47
2018-11-02T11:42:18.013Z,1015.44
2018-11-02T11:43:17.998Z,1015.37
2018-11-02T11:44:18.015Z,1015.46
2018-11-02T11:45:18.032Z,1015.47
2018-11-02T11:46:18.063Z,1015.36
2018-11-02T11:47:18.077Z,1015.51
2018-11-02T11:48:18.136Z,1015.48
2018-11-02T11:49:18.206Z,1015.45
2018-11-02T11:50:18.145Z,1015.42
2018-11-02T11:51:18.158Z,1015.42
2018-11-02T11:52:18.182Z,1015.36
2018-11-02T11:53:18.198Z,1015.32
2018-11-02T11:54:18.316Z,1015.32
2018-11-02T11:55:18.237Z,1015.35
2018-11-02T11:56:18.264Z,1015.33
2018-11-02T11:57:18.281Z,1015.24
2018-11-02T11:58:18.299Z,1015.18
2018-11-02T11:59:18.325Z,1015.22
2018-11-02T12:00:18.384Z,1015.17
2018-11-02T12:01:18.364Z,1015.23
2018-11-02T12:02:18.519Z,1015.19
2018-11-02T12:03:18.405Z,1015.10
2018-11-02T12:04:18.440Z,1015.20
2018-11-02T12:05:18.437Z,1015.21
2018-11-02T12:06:18.527Z,1015.08